CST,Max TemperatureF,Mean TemperatureF,Min TemperatureF,Max Dew PointF,MeanDew PointF,Min DewpointF,Max Humidity, Mean Humidity, Min Humidity, Max Sea Level PressureIn, Mean Sea Level PressureIn, Min Sea Level PressureIn, Max VisibilityMiles, Mean VisibilityMiles, Min VisibilityMiles, Max Wind SpeedMPH, Mean Wind SpeedMPH, Max Gust SpeedMPH,PrecipitationIn, CloudCover, Events, WindDirDegrees
2012-11-1,46,36,28,32,26,21,76,60,42,30.07,30.00,29.92,10,10,10,16,7,22,0.00,4,,339
2012-11-2,37,29,21,25,23,18,88,69,57,30.18,30.15,30.09,10,10,10,7,2,,0.00,3,,17
2012-11-3,42,39,36,27,26,24,67,61,53,30.24,30.22,30.17,10,10,10,5,1,,0.00,8,,69
2012-11-4,44,34,26,36,30,23,89,73,62,30.25,30.20,30.14,10,9,5,7,2,,0.00,7,Rain,100
2012-11-5,43,39,35,36,33,30,89,75,67,30.21,30.13,29.94,10,8,4,15,6,23,0.00,8,,121
2012-11-6,43,40,37,38,36,32,93,84,71,29.99,29.84,29.74,10,7,2,14,11,24,0.23,8,Rain,269
2012-11-7,45,41,37,34,32,30,87,76,56,30.12,30.07,29.99,10,10,10,8,5,,0.00,7,,278
2012-11-8,53,44,34,36,33,29,89,71,50,30.06,29.99,29.92,10,10,9,14,7,21,0.00,0,,174
2012-11-9,53,43,33,38,36,32,96,75,57,30.07,30.00,29.92,10,9,6,16,7,21,0.00,3,,60
2012-11-10,66,54,42,56,47,39,100,86,68,29.90,29.62,29.44,10,4,1,16,9,26,0.55,7,Rain-Thunderstorm,112
2012-11-11,54,38,21,52,28,12,94,82,65,29.96,29.75,29.48,10,8,2,17,13,26,0.01,8,Rain-Snow,267
2012-11-12,26,22,19,16,13,9,86,68,58,30.32,30.09,29.92,10,10,3,20,13,28,0.00,6,Snow,263
2012-11-13,43,30,17,27,20,13,88,65,40,30.39,30.33,30.28,10,10,10,13,6,17,0.00,2,,178
2012-11-14,51,40,30,32,29,26,82,64,41,30.28,30.23,30.15,10,10,10,9,5,,0.00,3,,162
2012-11-15,51,39,26,33,26,10,73,57,40,30.49,30.27,30.13,10,10,10,13,6,,0.00,2,,303
2012-11-16,44,31,18,27,17,11,78,57,27,30.51,30.44,30.33,10,10,10,10,3,,0.00,0,,145
2012-11-17,55,44,34,36,33,27,82,62,44,30.33,30.25,30.19,10,9,7,18,10,29,0.00,2,,156
2012-11-18,57,50,44,33,32,30,59,50,37,30.19,30.12,30.06,10,10,10,18,11,23,0.00,2,,151
2012-11-19,59,48,36,38,35,32,89,61,44,30.08,30.04,30.01,10,10,7,9,6,,0.00,3,,153
2012-11-20,53,40,28,35,31,28,96,74,43,30.19,30.13,30.05,10,8,2,8,3,,0.00,0,,258
2012-11-21,61,50,39,42,36,31,73,57,44,30.03,29.87,29.67,10,10,10,18,8,29,0.00,0,,174
2012-11-22,57,40,23,43,31,17,93,78,53,29.99,29.80,29.60,10,6,0,25,15,34,0.04,5,Fog-Rain-Snow,271
2012-11-23,26,20,12,18,13,7,86,74,60,30.41,30.19,29.97,10,7,1,31,20,41,0.00,7,Snow,307
2012-11-24,28,18,8,18,11,4,87,72,51,30.39,30.12,29.83,10,10,10,13,5,,0.00,5,,170
2012-11-25,30,28,21,22,20,8,78,71,55,30.19,29.99,29.79,10,10,9,18,8,28,0.00,8,Snow,295
2012-11-26,19,14,8,8,5,3,80,68,54,30.46,30.36,30.22,10,10,10,13,9,21,0.00,2,,297
2012-11-27,36,26,16,23,16,7,81,69,59,30.36,30.22,30.10,10,10,10,9,7,,0.00,3,,225
2012-11-28,34,30,25,24,21,18,78,70,61,30.36,30.26,30.11,10,10,9,10,7,18,0.00,5,,228
2012-11-29,39,29,19,25,23,16,89,74,55,30.14,30.11,30.08,10,8,6,12,3,17,0.00,0,,49
2012-11-30,35,32,28,31,27,24,89,81,76,30.20,30.14,30.06,9,6,4,14,7,20,0.00,8,,92